createdAt,value
2017-08-02T00:01:19.008Z,76.80
2017-08-02T00:03:47.976Z,77.00
2017-08-02T00:06:16.381Z,77.00
2017-08-02T00:08:44.906Z,77.50
2017-08-02T00:11:13.767Z,78.00
2017-08-02T00:13:42.137Z,78.60
2017-08-02T00:16:11.844Z,78.90
2017-08-02T00:18:40.494Z,78.90
2017-08-02T00:21:09.288Z,78.80
2017-08-02T00:23:37.602Z,78.70
2017-08-02T00:26:06.334Z,78.70
2017-08-02T00:28:34.505Z,78.80
2017-08-02T00:31:03.299Z,79.00
2017-08-02T00:33:32.131Z,78.80
2017-08-02T00:36:01.281Z,78.80
2017-08-02T00:38:30.152Z,78.90
2017-08-02T00:40:59.082Z,78.90
2017-08-02T00:43:28.553Z,79.10
2017-08-02T00:45:57.202Z,79.20
2017-08-02T00:48:25.755Z,79.20
2017-08-02T00:50:54.341Z,79.30
2017-08-02T00:53:23.056Z,79.40
2017-08-02T00:55:51.841Z,79.40
2017-08-02T00:58:20.637Z,79.30
2017-08-02T01:00:49.207Z,79.30
2017-08-02T01:03:17.794Z,79.20
2017-08-02T01:05:46.845Z,79.20
2017-08-02T01:08:14.966Z,79.10
2017-08-02T01:10:43.692Z,79.00
2017-08-02T01:13:12.756Z,79.10
2017-08-02T01:15:40.834Z,79.10
2017-08-02T01:18:09.958Z,78.90
2017-08-02T01:20:38.875Z,78.90
2017-08-02T01:23:07.486Z,78.90
2017-08-02T01:25:36.059Z,78.80
2017-08-02T01:28:04.705Z,78.50
2017-08-02T01:30:33.675Z,78.40
2017-08-02T01:33:03.313Z,78.60
2017-08-02T01:35:31.561Z,78.60
2017-08-02T01:38:00.261Z,78.50
2017-08-02T01:40:29.100Z,78.60
2017-08-02T01:42:57.973Z,78.60
2017-08-02T01:45:26.961Z,78.60
2017-08-02T01:47:55.617Z,78.50
2017-08-02T01:50:24.855Z,78.40
2017-08-02T01:52:53.844Z,78.40
2017-08-02T01:55:22.582Z,78.40
2017-08-02T01:57:51.563Z,78.40
2017-08-02T02:00:20.335Z,78.40
2017-08-02T02:02:48.544Z,78.30
2017-08-02T02:05:17.846Z,78.60
2017-08-02T02:07:46.555Z,78.60
2017-08-02T02:10:14.650Z,78.70
2017-08-02T02:12:43.703Z,78.80
2017-08-02T02:15:11.919Z,78.60
2017-08-02T02:17:40.299Z,78.50
2017-08-02T02:20:08.975Z,78.80
2017-08-02T02:22:37.557Z,78.80
2017-08-02T02:25:06.199Z,78.50
2017-08-02T02:27:34.733Z,78.60
2017-08-02T02:30:03.683Z,78.70
2017-08-02T02:32:32.066Z,78.80
2017-08-02T02:35:00.378Z,78.70
2017-08-02T02:37:29.223Z,78.70
2017-08-02T02:39:58.437Z,78.80
2017-08-02T02:42:27.173Z,78.80
2017-08-02T02:44:56.299Z,78.80
2017-08-02T02:47:25.336Z,78.80
2017-08-02T02:49:53.972Z,78.80
2017-08-02T02:52:22.442Z,78.80
2017-08-02T02:54:51.454Z,78.80
2017-08-02T02:57:20.170Z,78.80
2017-08-02T02:59:49.016Z,79.00
2017-08-02T03:02:17.788Z,79.00
2017-08-02T03:04:46.761Z,79.00
2017-08-02T03:07:15.682Z,79.10
2017-08-02T03:09:43.961Z,79.00
2017-08-02T03:12:12.837Z,78.70
2017-08-02T03:14:41.573Z,78.90
2017-08-02T03:17:10.944Z,78.70
2017-08-02T03:19:40.144Z,78.80
2017-08-02T03:22:08.875Z,78.80
2017-08-02T03:24:37.340Z,78.80
2017-08-02T03:27:05.498Z,78.90
2017-08-02T03:29:34.100Z,79.00
2017-08-02T03:32:02.468Z,78.70
2017-08-02T03:34:31.263Z,78.60
2017-08-02T03:37:00.509Z,78.60
2017-08-02T03:39:28.713Z,78.60
2017-08-02T03:41:56.898Z,78.50
2017-08-02T03:44:25.859Z,78.50
2017-08-02T03:46:55.020Z,78.70
2017-08-02T03:49:23.088Z,78.70
2017-08-02T03:51:52.045Z,78.70
2017-08-02T03:54:21.473Z,78.80
2017-08-02T03:56:50.373Z,78.80
2017-08-02T03:59:20.515Z,78.80
2017-08-02T04:01:49.374Z,78.80
2017-08-02T04:04:17.878Z,78.90
2017-08-02T04:06:47.101Z,79.00
2017-08-02T04:09:15.797Z,79.00
2017-08-02T04:11:45.312Z,78.80
2017-08-02T04:14:13.883Z,78.70
2017-08-02T04:16:42.434Z,78.70
2017-08-02T04:19:11.826Z,78.80
2017-08-02T04:21:41.058Z,78.90
2017-08-02T04:24:09.474Z,78.90
2017-08-02T04:26:38.837Z,78.60
2017-08-02T04:29:06.876Z,78.50
2017-08-02T04:31:35.439Z,78.40
2017-08-02T04:34:04.304Z,78.60
2017-08-02T04:36:32.647Z,78.50
2017-08-02T04:39:00.837Z,78.60
2017-08-02T04:41:29.727Z,78.70
2017-08-02T04:43:58.318Z,78.70
2017-08-02T04:46:26.995Z,78.60
2017-08-02T04:48:56.034Z,78.50
2017-08-02T04:51:24.414Z,78.60
2017-08-02T04:53:53.407Z,78.60
2017-08-02T04:56:22.128Z,78.70
2017-08-02T04:58:50.652Z,78.70
2017-08-02T05:01:20.247Z,78.90
2017-08-02T05:03:48.638Z,78.90
2017-08-02T05:06:17.413Z,78.80
2017-08-02T05:08:47.236Z,78.70
2017-08-02T05:11:15.708Z,78.70
2017-08-02T05:13:44.488Z,78.70
2017-08-02T05:16:12.833Z,78.60
2017-08-02T05:18:41.788Z,78.80
2017-08-02T05:21:10.772Z,78.80
2017-08-02T05:23:38.761Z,78.90
2017-08-02T05:26:07.563Z,78.90
2017-08-02T05:28:35.696Z,78.90
2017-08-02T05:31:04.547Z,78.70
2017-08-02T05:33:33.045Z,78.60
2017-08-02T05:36:02.375Z,78.70
2017-08-02T05:38:31.627Z,78.50
2017-08-02T05:41:00.245Z,78.50
2017-08-02T05:43:28.785Z,78.50
2017-08-02T05:45:57.595Z,78.20
2017-08-02T05:48:26.418Z,78.30
2017-08-02T05:50:55.062Z,78.20
2017-08-02T05:53:23.700Z,78.20
2017-08-02T05:55:52.738Z,77.50
2017-08-02T05:58:21.990Z,77.30
2017-08-02T06:00:50.089Z,77.30
2017-08-02T06:03:18.715Z,76.90
2017-08-02T06:05:48.293Z,77.00
2017-08-02T06:08:17.659Z,77.20
2017-08-02T06:10:46.638Z,77.10
2017-08-02T06:13:15.947Z,76.70
2017-08-02T06:15:44.241Z,76.60
2017-08-02T06:18:12.875Z,76.50
2017-08-02T06:20:42.412Z,76.60
2017-08-02T06:23:10.778Z,76.60
2017-08-02T06:25:38.906Z,76.70
2017-08-02T06:28:08.186Z,76.70
2017-08-02T06:30:36.454Z,76.70
2017-08-02T06:33:04.849Z,76.60
2017-08-02T06:35:33.390Z,76.70
2017-08-02T06:38:01.659Z,76.70
2017-08-02T06:40:30.274Z,76.60
2017-08-02T06:42:58.970Z,76.00
2017-08-02T06:45:27.757Z,76.10
2017-08-02T06:47:56.349Z,76.00
2017-08-02T06:50:24.879Z,75.80
2017-08-02T06:52:53.668Z,75.80
2017-08-02T06:55:22.491Z,75.20
2017-08-02T06:57:51.175Z,75.20
2017-08-02T07:00:20.010Z,74.30
2017-08-02T07:02:48.230Z,74.20
2017-08-02T07:05:16.942Z,74.50
2017-08-02T07:07:45.662Z,74.00
2017-08-02T07:10:15.405Z,73.90
2017-08-02T07:12:43.681Z,73.70
2017-08-02T07:15:12.072Z,73.00
2017-08-02T07:17:40.593Z,72.60
2017-08-02T07:20:09.976Z,72.40
2017-08-02T07:22:38.161Z,72.40
2017-08-02T07:25:06.525Z,71.30
2017-08-02T07:27:35.232Z,70.80
2017-08-02T07:30:03.638Z,70.80
2017-08-02T07:32:32.778Z,70.70
2017-08-02T07:35:00.904Z,69.80
2017-08-02T07:37:30.065Z,69.00
2017-08-02T07:39:58.676Z,68.10
2017-08-02T07:42:27.267Z,67.80
2017-08-02T07:44:56.173Z,66.70
2017-08-02T07:47:25.151Z,67.30
2017-08-02T07:49:53.910Z,67.20
2017-08-02T07:52:23.058Z,66.20
2017-08-02T07:54:51.632Z,66.20
2017-08-02T07:57:19.955Z,66.70
2017-08-02T07:59:49.050Z,68.00
2017-08-02T08:02:18.185Z,69.00
2017-08-02T08:04:46.901Z,69.00
2017-08-02T08:07:15.182Z,69.00
2017-08-02T08:09:44.084Z,68.50
2017-08-02T08:12:12.398Z,68.50
2017-08-02T08:14:40.907Z,68.40
2017-08-02T08:17:09.953Z,66.50
2017-08-02T08:19:38.765Z,66.50
2017-08-02T08:22:07.397Z,66.50
2017-08-02T08:24:36.454Z,66.30
2017-08-02T08:27:06.648Z,66.60
2017-08-02T08:29:35.106Z,66.60
2017-08-02T08:32:03.906Z,66.60
2017-08-02T08:34:32.287Z,66.40
2017-08-02T08:37:01.137Z,65.80
2017-08-02T08:39:30.857Z,64.70
2017-08-02T08:42:09.599Z,64.50
2017-08-02T08:44:38.495Z,63.80
2017-08-02T08:47:07.300Z,63.80
2017-08-02T08:49:35.840Z,62.70
2017-08-02T08:52:04.710Z,63.30
2017-08-02T08:54:33.183Z,62.80
2017-08-02T08:57:01.365Z,61.90
2017-08-02T08:59:30.531Z,62.10
2017-08-02T09:01:58.926Z,62.10
2017-08-02T09:04:27.001Z,62.30
2017-08-02T09:06:56.800Z,61.90
2017-08-02T09:09:25.844Z,61.00
2017-08-02T09:11:54.635Z,61.00
2017-08-02T09:14:23.572Z,60.20
2017-08-02T09:16:52.598Z,58.30
2017-08-02T09:19:21.295Z,58.30
2017-08-02T09:21:49.783Z,57.90
2017-08-02T09:24:18.453Z,56.60
2017-08-02T09:26:47.679Z,56.30
2017-08-02T09:29:16.977Z,55.30
2017-08-02T09:31:44.965Z,55.30
2017-08-02T09:34:13.502Z,55.30
2017-08-02T09:36:43.918Z,53.80
2017-08-02T09:39:11.901Z,53.80
2017-08-02T09:41:40.348Z,52.30
2017-08-02T09:44:09.346Z,52.40
2017-08-02T09:46:37.501Z,51.30
2017-08-02T09:49:06.191Z,51.30
2017-08-02T09:51:34.187Z,49.30
2017-08-02T09:54:03.166Z,48.50
2017-08-02T09:56:32.333Z,47.50
2017-08-02T09:59:01.649Z,47.00
2017-08-02T10:01:30.160Z,47.00
2017-08-02T10:03:58.889Z,47.20
2017-08-02T10:06:27.200Z,46.40
2017-08-02T10:08:55.688Z,45.50
2017-08-02T10:11:24.109Z,44.40
2017-08-02T10:13:52.832Z,44.70
2017-08-02T10:16:22.084Z,44.30
2017-08-02T10:18:50.252Z,44.60
2017-08-02T10:21:19.079Z,44.40
2017-08-02T10:23:47.973Z,44.30
2017-08-02T10:26:16.765Z,44.50
2017-08-02T10:28:45.398Z,44.50
2017-08-02T10:31:14.950Z,46.70
2017-08-02T10:33:43.322Z,46.70
2017-08-02T10:36:11.937Z,46.90
2017-08-02T10:38:40.966Z,48.10
2017-08-02T10:41:09.783Z,47.60
2017-08-02T10:43:38.320Z,48.60
2017-08-02T10:46:06.553Z,47.50
2017-08-02T10:48:34.323Z,48.30
2017-08-02T10:51:02.556Z,49.40
2017-08-02T10:53:32.608Z,49.90
2017-08-02T10:56:01.688Z,48.60
2017-08-02T10:58:30.969Z,49.40
2017-08-02T11:00:59.445Z,49.40
2017-08-02T11:03:28.340Z,49.50
2017-08-02T11:05:57.027Z,50.50
2017-08-02T11:08:25.586Z,50.60
2017-08-02T11:10:54.333Z,51.50
2017-08-02T11:13:22.562Z,51.50
2017-08-02T11:15:51.255Z,51.80
2017-08-02T11:18:20.384Z,50.10
2017-08-02T11:20:49.261Z,49.20
2017-08-02T11:23:17.691Z,50.20
2017-08-02T11:25:46.138Z,50.80
2017-08-02T11:28:14.315Z,50.30
2017-08-02T11:30:44.107Z,50.50
2017-08-02T11:33:12.592Z,50.60
2017-08-02T11:35:41.344Z,50.20
2017-08-02T11:38:10.003Z,50.60
2017-08-02T11:40:39.472Z,51.40
2017-08-02T11:43:07.558Z,51.40
2017-08-02T11:45:36.126Z,50.90
2017-08-02T11:48:05.286Z,50.10
2017-08-02T11:50:33.962Z,50.10
2017-08-02T11:53:02.510Z,49.50
2017-08-02T11:55:31.035Z,49.80
2017-08-02T11:57:59.489Z,50.90
2017-08-02T12:00:28.220Z,50.60
2017-08-02T12:02:57.103Z,50.30
2017-08-02T12:05:25.703Z,49.80
2017-08-02T12:07:54.814Z,50.70
2017-08-02T12:10:23.204Z,50.70
2017-08-02T12:12:51.732Z,50.70
2017-08-02T12:15:20.517Z,51.10
2017-08-02T12:17:49.564Z,51.60
2017-08-02T12:20:17.724Z,51.90
2017-08-02T12:22:46.409Z,52.50
2017-08-02T12:25:15.087Z,51.70
2017-08-02T12:27:43.805Z,51.70
2017-08-02T12:30:12.636Z,50.40
2017-08-02T12:32:41.773Z,50.60
2017-08-02T12:35:10.556Z,51.30
2017-08-02T12:37:39.041Z,51.50
2017-08-02T12:40:07.911Z,51.70
2017-08-02T12:42:37.177Z,50.80
2017-08-02T12:45:05.203Z,50.80
2017-08-02T12:47:34.683Z,51.00
2017-08-02T12:50:03.234Z,51.80
2017-08-02T12:52:31.719Z,51.90
2017-08-02T12:55:00.057Z,52.60
2017-08-02T12:57:28.445Z,52.20
2017-08-02T12:59:57.484Z,51.40
2017-08-02T13:02:26.498Z,51.40
2017-08-02T13:04:55.248Z,52.30
2017-08-02T13:07:23.740Z,52.80
2017-08-02T13:09:53.475Z,53.60
2017-08-02T13:12:21.792Z,51.90
2017-08-02T13:14:50.086Z,52.00
2017-08-02T13:17:18.800Z,51.80
2017-08-02T13:19:46.997Z,51.70
2017-08-02T13:22:15.823Z,51.30
2017-08-02T13:24:44.653Z,52.00
2017-08-02T13:27:13.813Z,52.30
2017-08-02T13:29:41.591Z,50.90
2017-08-02T13:32:09.712Z,51.10
2017-08-02T13:34:38.508Z,49.60
2017-08-02T13:37:07.810Z,49.20
2017-08-02T13:39:36.264Z,49.90
2017-08-02T13:42:05.366Z,50.50
2017-08-02T13:44:33.897Z,49.70
2017-08-02T13:47:02.572Z,49.60
2017-08-02T13:49:31.405Z,49.60
2017-08-02T13:52:00.348Z,50.30
2017-08-02T13:54:30.699Z,49.90
2017-08-02T13:56:59.110Z,49.80
2017-08-02T13:59:27.893Z,50.80
2017-08-02T14:01:55.811Z,49.50
2017-08-02T14:04:24.567Z,50.50
2017-08-02T14:06:53.108Z,50.10
2017-08-02T14:09:21.284Z,50.90
2017-08-02T14:11:50.147Z,50.90
2017-08-02T14:14:18.880Z,50.90
2017-08-02T14:16:46.932Z,51.00
2017-08-02T14:19:16.179Z,50.10
2017-08-02T14:21:44.748Z,50.20
2017-08-02T14:24:12.990Z,50.20
2017-08-02T14:26:42.114Z,50.40
2017-08-02T14:29:10.756Z,50.40
2017-08-02T14:31:38.505Z,50.30
2017-08-02T14:34:07.556Z,50.60
2017-08-02T14:36:36.510Z,50.60
2017-08-02T14:39:05.502Z,49.30
2017-08-02T14:41:34.251Z,49.10
2017-08-02T14:44:02.541Z,49.00
2017-08-02T14:46:31.513Z,49.00
2017-08-02T14:49:00.563Z,49.40
2017-08-02T14:51:28.464Z,49.40
2017-08-02T14:53:57.526Z,49.10
2017-08-02T14:56:25.850Z,49.10
2017-08-02T14:58:54.685Z,50.30
2017-08-02T15:01:23.542Z,49.90
2017-08-02T15:03:51.760Z,49.40
2017-08-02T15:06:20.092Z,50.10
2017-08-02T15:08:48.476Z,50.60
2017-08-02T15:11:17.754Z,50.20
2017-08-02T15:13:46.624Z,50.80
2017-08-02T15:16:14.878Z,50.80
2017-08-02T15:18:43.363Z,50.60
2017-08-02T15:21:12.449Z,50.30
2017-08-02T15:23:41.731Z,50.80
2017-08-02T15:26:10.216Z,50.80
2017-08-02T15:28:39.072Z,51.00
2017-08-02T15:31:07.730Z,50.90
2017-08-02T15:33:37.225Z,50.20
2017-08-02T15:36:05.819Z,50.20
2017-08-02T15:38:34.545Z,50.30
2017-08-02T15:41:03.130Z,49.50
2017-08-02T15:43:31.935Z,49.40
2017-08-02T15:46:00.304Z,49.90
2017-08-02T15:48:28.715Z,50.30
2017-08-02T15:50:58.122Z,50.50
2017-08-02T15:53:26.181Z,50.50
2017-08-02T15:55:54.581Z,50.50
2017-08-02T15:58:23.782Z,50.30
2017-08-02T16:00:51.933Z,50.40
2017-08-02T16:03:20.714Z,50.80
2017-08-02T16:05:48.958Z,50.80
2017-08-02T16:08:17.106Z,50.90
2017-08-02T16:10:46.265Z,51.60
2017-08-02T16:13:15.013Z,51.60
2017-08-02T16:15:43.400Z,51.50
2017-08-02T16:18:11.972Z,51.60
2017-08-02T16:20:41.310Z,51.60
2017-08-02T16:23:09.503Z,51.20
2017-08-02T16:25:38.983Z,51.50
2017-08-02T16:28:08.128Z,51.40
2017-08-02T16:30:37.089Z,51.40
2017-08-02T16:33:04.785Z,51.40
2017-08-02T16:35:33.752Z,51.40
2017-08-02T16:38:02.190Z,51.70
2017-08-02T16:40:31.183Z,51.60
2017-08-02T16:42:59.394Z,51.60
2017-08-02T16:45:28.666Z,51.90
2017-08-02T16:47:57.733Z,52.10
2017-08-02T16:50:26.587Z,51.90
2017-08-02T16:52:55.550Z,51.90
2017-08-02T16:55:23.424Z,51.70
2017-08-02T16:57:52.071Z,51.90
2017-08-02T17:00:21.537Z,51.50
2017-08-02T17:02:50.449Z,51.50
2017-08-02T17:05:18.616Z,51.60
2017-08-02T17:07:47.588Z,51.60
2017-08-02T17:10:16.527Z,51.50
2017-08-02T17:12:45.559Z,51.70
2017-08-02T17:15:14.863Z,51.80
2017-08-02T17:17:43.859Z,52.10
2017-08-02T17:20:13.207Z,52.20
2017-08-02T17:22:42.557Z,52.20
2017-08-02T17:25:10.966Z,52.20
2017-08-02T17:27:39.964Z,52.30
2017-08-02T17:30:08.561Z,52.20
2017-08-02T17:32:38.157Z,52.40
2017-08-02T17:35:08.740Z,52.50
2017-08-02T17:37:37.483Z,52.50
2017-08-02T17:40:06.881Z,52.80
2017-08-02T17:42:35.964Z,53.20
2017-08-02T17:45:04.284Z,53.20
2017-08-02T17:47:32.589Z,53.60
2017-08-02T17:50:02.197Z,53.30
2017-08-02T17:52:30.764Z,53.30
2017-08-02T17:55:00.209Z,53.00
2017-08-02T17:57:28.466Z,53.00
2017-08-02T17:59:57.759Z,52.80
2017-08-02T18:02:26.498Z,52.80
2017-08-02T18:04:55.584Z,52.80
2017-08-02T18:07:25.367Z,53.30
2017-08-02T18:09:54.948Z,53.60
2017-08-02T18:12:23.781Z,54.10
2017-08-02T18:14:52.664Z,54.10
2017-08-02T18:17:21.937Z,54.30
2017-08-02T18:19:50.402Z,54.60
2017-08-02T18:22:18.795Z,54.60
2017-08-02T18:24:47.586Z,54.90
2017-08-02T18:27:16.908Z,55.60
2017-08-02T18:29:46.370Z,55.70
2017-08-02T18:32:15.065Z,55.70
2017-08-02T18:34:44.347Z,55.80
2017-08-02T18:37:22.500Z,56.00
2017-08-02T18:39:50.856Z,56.00
2017-08-02T18:42:19.457Z,56.20
2017-08-02T18:44:48.341Z,57.10
2017-08-02T18:47:17.063Z,57.00
2017-08-02T18:49:46.317Z,57.10
2017-08-02T18:52:15.507Z,57.10
2017-08-02T18:54:44.582Z,57.20
2017-08-02T18:57:13.962Z,57.50
2017-08-02T18:59:42.196Z,57.80
2017-08-02T19:02:10.680Z,57.90
2017-08-02T19:04:39.721Z,58.60
2017-08-02T19:07:08.998Z,58.90
2017-08-02T19:09:38.483Z,59.20
2017-08-02T19:12:06.958Z,59.20
2017-08-02T19:14:35.952Z,59.90
2017-08-02T19:17:04.548Z,59.90
2017-08-02T19:19:33.601Z,60.20
2017-08-02T19:22:02.134Z,60.50
2017-08-02T19:24:31.910Z,61.10
2017-08-02T19:27:00.464Z,61.10
2017-08-02T19:29:28.723Z,61.60
2017-08-02T19:31:56.976Z,62.00
2017-08-02T19:34:25.474Z,62.10
2017-08-02T19:36:55.496Z,62.50
2017-08-02T19:39:25.038Z,62.50
2017-08-02T19:41:53.244Z,62.90
2017-08-02T19:44:22.210Z,63.40
2017-08-02T19:46:50.959Z,63.40
2017-08-02T19:49:20.573Z,63.80
2017-08-02T19:51:49.901Z,64.00
2017-08-02T19:54:18.520Z,64.00
2017-08-02T19:56:46.974Z,64.20
2017-08-02T19:59:15.816Z,64.30
2017-08-02T20:01:44.272Z,64.20
2017-08-02T20:04:12.580Z,64.30
2017-08-02T20:06:41.741Z,64.60
2017-08-02T20:09:09.884Z,64.70
2017-08-02T20:11:38.836Z,65.10
2017-08-02T20:14:07.444Z,65.40
2017-08-02T20:16:35.977Z,65.40
2017-08-02T20:19:05.363Z,65.80
2017-08-02T20:21:33.768Z,65.80
2017-08-02T20:24:02.396Z,66.10
2017-08-02T20:26:31.360Z,66.00
2017-08-02T20:29:01.171Z,66.30
2017-08-02T20:31:30.200Z,66.30
2017-08-02T20:33:58.555Z,65.90
2017-08-02T20:36:28.619Z,65.30
2017-08-02T20:38:57.468Z,65.40
2017-08-02T20:41:27.538Z,65.30
2017-08-02T20:43:56.900Z,65.70
2017-08-02T20:46:25.944Z,65.90
2017-08-02T20:48:54.762Z,66.00
2017-08-02T20:51:23.982Z,66.40
2017-08-02T20:53:52.711Z,66.40
2017-08-02T20:56:21.393Z,66.30
2017-08-02T20:58:51.139Z,66.60
2017-08-02T21:01:18.913Z,66.70
2017-08-02T21:03:48.828Z,66.90
2017-08-02T21:06:17.708Z,66.90
2017-08-02T21:08:46.686Z,67.10
2017-08-02T21:11:15.599Z,67.20
2017-08-02T21:13:44.521Z,67.50
2017-08-02T21:16:12.854Z,67.60
2017-08-02T21:18:41.686Z,67.60
2017-08-02T21:21:09.810Z,67.60
2017-08-02T21:23:38.652Z,67.50
2017-08-02T21:26:07.547Z,67.60
2017-08-02T21:28:36.688Z,67.60
2017-08-02T21:31:05.667Z,68.00
2017-08-02T21:33:34.420Z,67.90
2017-08-02T21:36:02.810Z,67.90
2017-08-02T21:38:32.028Z,67.90
2017-08-02T21:41:02.217Z,67.70
2017-08-02T21:43:31.529Z,67.90
2017-08-02T21:46:00.121Z,68.20
2017-08-02T21:48:29.494Z,68.10
2017-08-02T21:50:57.834Z,68.20
2017-08-02T21:53:26.651Z,68.40
2017-08-02T21:55:55.648Z,68.50
2017-08-02T21:58:24.507Z,68.50
2017-08-02T22:00:53.391Z,68.50
2017-08-02T22:03:22.357Z,68.40
2017-08-02T22:05:50.440Z,68.60
2017-08-02T22:08:19.110Z,68.50
2017-08-02T22:10:47.377Z,68.40
2017-08-02T22:13:16.084Z,68.30
2017-08-02T22:15:45.725Z,68.70
2017-08-02T22:18:14.229Z,68.30
2017-08-02T22:20:43.035Z,68.60
2017-08-02T22:23:11.442Z,68.70
2017-08-02T22:25:40.048Z,68.80
2017-08-02T22:28:08.809Z,68.80
2017-08-02T22:30:38.867Z,69.20
2017-08-02T22:33:08.438Z,69.40
2017-08-02T22:35:37.820Z,69.60
2017-08-02T22:38:07.739Z,69.50
2017-08-02T22:40:36.526Z,69.40
2017-08-02T22:43:05.433Z,69.40
2017-08-02T22:45:34.546Z,69.10
2017-08-02T22:48:03.495Z,69.50
2017-08-02T22:50:32.195Z,69.50
2017-08-02T22:53:00.980Z,69.60
2017-08-02T22:55:29.340Z,69.70
2017-08-02T22:57:58.526Z,69.90
2017-08-02T23:00:27.399Z,70.30
2017-08-02T23:02:56.357Z,70.60
2017-08-02T23:05:25.143Z,70.60
2017-08-02T23:07:53.741Z,70.90
2017-08-02T23:10:22.559Z,71.00
2017-08-02T23:12:51.025Z,71.30
2017-08-02T23:15:19.740Z,71.30
2017-08-02T23:17:48.818Z,71.40
2017-08-02T23:20:18.187Z,71.30
2017-08-02T23:22:48.126Z,71.50
2017-08-02T23:25:17.376Z,71.50
2017-08-02T23:27:47.132Z,71.80
2017-08-02T23:30:16.121Z,71.80
2017-08-02T23:32:45.066Z,71.50
2017-08-02T23:35:13.617Z,71.50
2017-08-02T23:37:42.320Z,71.70
2017-08-02T23:40:12.666Z,71.60
2017-08-02T23:42:41.330Z,71.60
2017-08-02T23:45:09.812Z,71.80
2017-08-02T23:47:38.916Z,71.90
2017-08-02T23:50:07.921Z,71.90
2017-08-02T23:52:37.595Z,72.00
2017-08-02T23:55:07.072Z,72.10
2017-08-02T23:57:36.869Z,72.40
